sensor_id;sensor_type;location;lat;lon;timestamp;pressure;altitude;pressure_sealevel;temperature;humidity
75513;BME280;64090;49.770;18.760;2024-02-15T00:02:41;98139.90;;;5.87;79.83
75513;BME280;64090;49.770;18.760;2024-02-15T00:06:03;98141.84;;;5.87;79.81
75513;BME280;64090;49.770;18.760;2024-02-15T00:09:06;98137.10;;;5.87;79.71
75513;BME280;64090;49.770;18.760;2024-02-15T00:12:09;98144.59;;;5.88;79.90
75513;BME280;64090;49.770;18.760;2024-02-15T00:15:12;98149.02;;;5.88;79.91
75513;BME280;64090;49.770;18.760;2024-02-15T00:18:16;98148.02;;;5.89;79.93
75513;BME280;64090;49.770;18.760;2024-02-15T00:21:19;98149.44;;;5.89;80.03
75513;BME280;64090;49.770;18.760;2024-02-15T00:24:22;98149.30;;;5.90;80.39
75513;BME280;64090;49.770;18.760;2024-02-15T00:27:26;98153.81;;;5.91;80.53
75513;BME280;64090;49.770;18.760;2024-02-15T00:30:29;98153.10;;;5.90;80.31
75513;BME280;64090;49.770;18.760;2024-02-15T00:33:32;98158.79;;;5.92;80.53
75513;BME280;64090;49.770;18.760;2024-02-15T00:36:35;98164.76;;;5.93;80.45
75513;BME280;64090;49.770;18.760;2024-02-15T00:39:38;98169.38;;;5.95;80.29
75513;BME280;64090;49.770;18.760;2024-02-15T00:42:41;98173.48;;;5.96;80.18
75513;BME280;64090;49.770;18.760;2024-02-15T00:45:44;98176.90;;;5.97;80.15
75513;BME280;64090;49.770;18.760;2024-02-15T00:48:47;98175.54;;;5.98;80.16
75513;BME280;64090;49.770;18.760;2024-02-15T00:51:50;98178.42;;;5.99;80.36
75513;BME280;64090;49.770;18.760;2024-02-15T00:54:52;98180.38;;;6.00;80.19
75513;BME280;64090;49.770;18.760;2024-02-15T00:57:55;98180.16;;;6.02;80.08
75513;BME280;64090;49.770;18.760;2024-02-15T01:00:58;98184.43;;;6.03;80.09
75513;BME280;64090;49.770;18.760;2024-02-15T01:04:02;98186.51;;;6.05;80.20
75513;BME280;64090;49.770;18.760;2024-02-15T01:07:05;98186.67;;;6.07;80.22
75513;BME280;64090;49.770;18.760;2024-02-15T01:10:08;98186.13;;;6.07;80.24
75513;BME280;64090;49.770;18.760;2024-02-15T01:13:11;98185.48;;;6.07;80.30
75513;BME280;64090;49.770;18.760;2024-02-15T01:16:14;98183.59;;;6.10;80.42
75513;BME280;64090;49.770;18.760;2024-02-15T01:19:18;98179.30;;;6.12;80.38
75513;BME280;64090;49.770;18.760;2024-02-15T01:22:21;98178.35;;;6.14;80.30
75513;BME280;64090;49.770;18.760;2024-02-15T01:25:27;98179.83;;;6.17;80.40
75513;BME280;64090;49.770;18.760;2024-02-15T01:28:31;98171.65;;;6.19;80.37
75513;BME280;64090;49.770;18.760;2024-02-15T01:31:33;98167.39;;;6.21;80.56
75513;BME280;64090;49.770;18.760;2024-02-15T01:34:36;98168.48;;;6.26;80.30
75513;BME280;64090;49.770;18.760;2024-02-15T01:37:39;98163.77;;;6.29;80.16
75513;BME280;64090;49.770;18.760;2024-02-15T01:40:43;98160.29;;;6.32;80.13
75513;BME280;64090;49.770;18.760;2024-02-15T01:43:46;98158.96;;;6.34;80.14
75513;BME280;64090;49.770;18.760;2024-02-15T01:46:50;98151.56;;;6.36;80.19
75513;BME280;64090;49.770;18.760;2024-02-15T01:49:57;98145.39;;;6.36;80.29
75513;BME280;64090;49.770;18.760;2024-02-15T01:53:01;98146.71;;;6.37;80.13
75513;BME280;64090;49.770;18.760;2024-02-15T01:56:07;98140.88;;;6.35;80.40
75513;BME280;64090;49.770;18.760;2024-02-15T01:59:11;98137.84;;;6.33;80.37
75513;BME280;64090;49.770;18.760;2024-02-15T02:02:15;98138.08;;;6.30;80.51
75513;BME280;64090;49.770;18.760;2024-02-15T02:05:21;98135.22;;;6.27;80.59
75513;BME280;64090;49.770;18.760;2024-02-15T02:08:24;98136.55;;;6.25;80.73
75513;BME280;64090;49.770;18.760;2024-02-15T02:11:26;98131.92;;;6.22;80.86
75513;BME280;64090;49.770;18.760;2024-02-15T02:14:32;98130.55;;;6.19;80.93
75513;BME280;64090;49.770;18.760;2024-02-15T02:17:34;98134.07;;;6.17;80.81
75513;BME280;64090;49.770;18.760;2024-02-15T02:20:38;98137.86;;;6.15;80.91
75513;BME280;64090;49.770;18.760;2024-02-15T02:23:42;98142.13;;;6.13;80.91
75513;BME280;64090;49.770;18.760;2024-02-15T02:26:45;98140.25;;;6.10;81.19
75513;BME280;64090;49.770;18.760;2024-02-15T02:29:48;98140.77;;;6.09;81.11
75513;BME280;64090;49.770;18.760;2024-02-15T02:32:51;98138.89;;;6.06;80.91
75513;BME280;64090;49.770;18.760;2024-02-15T02:35:54;98130.02;;;6.04;80.92
75513;BME280;64090;49.770;18.760;2024-02-15T02:39:00;98129.04;;;6.02;81.04
75513;BME280;64090;49.770;18.760;2024-02-15T02:42:04;98132.18;;;5.99;81.03
75513;BME280;64090;49.770;18.760;2024-02-15T02:45:07;98128.31;;;5.97;81.08
75513;BME280;64090;49.770;18.760;2024-02-15T02:48:10;98130.09;;;5.95;80.97
75513;BME280;64090;49.770;18.760;2024-02-15T02:51:13;98127.80;;;5.92;81.01
75513;BME280;64090;49.770;18.760;2024-02-15T02:54:16;98124.90;;;5.89;80.83
75513;BME280;64090;49.770;18.760;2024-02-15T02:57:20;98121.54;;;5.86;80.98
75513;BME280;64090;49.770;18.760;2024-02-15T03:00:23;98123.99;;;5.83;81.11
75513;BME280;64090;49.770;18.760;2024-02-15T03:03:35;98125.70;;;5.80;81.18
75513;BME280;64090;49.770;18.760;2024-02-15T03:06:38;98124.63;;;5.79;81.29
75513;BME280;64090;49.770;18.760;2024-02-15T03:09:41;98124.53;;;5.76;81.20
75513;BME280;64090;49.770;18.760;2024-02-15T03:12:44;98121.70;;;5.73;81.25
75513;BME280;64090;49.770;18.760;2024-02-15T03:15:51;98118.77;;;5.71;81.34
75513;BME280;64090;49.770;18.760;2024-02-15T03:18:54;98121.34;;;5.69;81.41
75513;BME280;64090;49.770;18.760;2024-02-15T03:21:57;98120.11;;;5.67;81.35
75513;BME280;64090;49.770;18.760;2024-02-15T03:25:00;98119.78;;;5.64;81.44
75513;BME280;64090;49.770;18.760;2024-02-15T03:28:03;98120.40;;;5.62;81.74
75513;BME280;64090;49.770;18.760;2024-02-15T03:31:07;98116.64;;;5.59;81.63
75513;BME280;64090;49.770;18.760;2024-02-15T03:34:10;98114.11;;;5.57;81.78
75513;BME280;64090;49.770;18.760;2024-02-15T03:37:13;98109.66;;;5.54;81.69
75513;BME280;64090;49.770;18.760;2024-02-15T03:40:17;98110.30;;;5.51;81.84
75513;BME280;64090;49.770;18.760;2024-02-15T03:43:21;98109.94;;;5.48;81.76
75513;BME280;64090;49.770;18.760;2024-02-15T03:46:23;98103.88;;;5.46;82.28
75513;BME280;64090;49.770;18.760;2024-02-15T03:49:26;98105.16;;;5.44;82.17
75513;BME280;64090;49.770;18.760;2024-02-15T03:52:30;98107.77;;;5.40;82.37
75513;BME280;64090;49.770;18.760;2024-02-15T03:55:33;98107.23;;;5.36;82.61
75513;BME280;64090;49.770;18.760;2024-02-15T03:58:38;98105.52;;;5.32;82.95
75513;BME280;64090;49.770;18.760;2024-02-15T04:01:41;98101.73;;;5.30;82.93
75513;BME280;64090;49.770;18.760;2024-02-15T04:04:44;98101.76;;;5.28;83.13
75513;BME280;64090;49.770;18.760;2024-02-15T04:07:49;98098.42;;;5.26;83.05
75513;BME280;64090;49.770;18.760;2024-02-15T04:10:52;98100.10;;;5.25;82.97
75513;BME280;64090;49.770;18.760;2024-02-15T04:13:55;98107.61;;;5.24;83.05
75513;BME280;64090;49.770;18.760;2024-02-15T04:17:00;98118.73;;;5.21;83.26
75513;BME280;64090;49.770;18.760;2024-02-15T04:20:04;98122.33;;;5.19;82.87
75513;BME280;64090;49.770;18.760;2024-02-15T04:23:09;98114.04;;;5.14;83.27
75513;BME280;64090;49.770;18.760;2024-02-15T04:26:11;98112.59;;;5.08;83.46
75513;BME280;64090;49.770;18.760;2024-02-15T04:29:17;98108.45;;;5.02;83.52
75513;BME280;64090;49.770;18.760;2024-02-15T04:32:22;98110.67;;;4.98;83.42
75513;BME280;64090;49.770;18.760;2024-02-15T04:35:25;98109.91;;;4.93;83.55
75513;BME280;64090;49.770;18.760;2024-02-15T04:38:48;98111.73;;;4.89;83.83
75513;BME280;64090;49.770;18.760;2024-02-15T04:41:53;98108.23;;;4.86;84.24
75513;BME280;64090;49.770;18.760;2024-02-15T04:44:56;98107.38;;;4.84;83.80
75513;BME280;64090;49.770;18.760;2024-02-15T04:47:59;98103.45;;;4.80;84.07
75513;BME280;64090;49.770;18.760;2024-02-15T04:51:04;98104.31;;;4.76;84.39
75513;BME280;64090;49.770;18.760;2024-02-15T04:54:08;98108.75;;;4.74;84.18
75513;BME280;64090;49.770;18.760;2024-02-15T04:57:11;98112.10;;;4.72;84.31
75513;BME280;64090;49.770;18.760;2024-02-15T05:00:15;98112.42;;;4.69;84.28
75513;BME280;64090;49.770;18.760;2024-02-15T05:03:19;98118.39;;;4.66;84.32
75513;BME280;64090;49.770;18.760;2024-02-15T05:06:40;98119.79;;;4.59;84.17
75513;BME280;64090;49.770;18.760;2024-02-15T05:09:43;98123.60;;;4.52;84.10
75513;BME280;64090;49.770;18.760;2024-02-15T05:12:45;98129.42;;;4.46;84.08
75513;BME280;64090;49.770;18.760;2024-02-15T05:15:51;98132.88;;;4.38;84.17
75513;BME280;64090;49.770;18.760;2024-02-15T05:18:54;98139.51;;;4.31;84.13
75513;BME280;64090;49.770;18.760;2024-02-15T05:21:57;98142.29;;;4.24;84.04
75513;BME280;64090;49.770;18.760;2024-02-15T05:25:00;98149.79;;;4.20;83.89
75513;BME280;64090;49.770;18.760;2024-02-15T05:28:03;98153.02;;;4.19;84.06
75513;BME280;64090;49.770;18.760;2024-02-15T05:31:09;98153.48;;;4.19;84.24
75513;BME280;64090;49.770;18.760;2024-02-15T05:34:13;98157.55;;;4.24;84.39
75513;BME280;64090;49.770;18.760;2024-02-15T05:37:17;98153.01;;;4.33;84.64
75513;BME280;64090;49.770;18.760;2024-02-15T05:40:20;98151.52;;;4.43;84.70
75513;BME280;64090;49.770;18.760;2024-02-15T05:43:23;98155.87;;;4.49;84.65
75513;BME280;64090;49.770;18.760;2024-02-15T05:46:28;98159.20;;;4.58;84.78
75513;BME280;64090;49.770;18.760;2024-02-15T05:49:30;98159.20;;;4.67;84.79
75513;BME280;64090;49.770;18.760;2024-02-15T05:52:33;98162.14;;;4.74;84.61
75513;BME280;64090;49.770;18.760;2024-02-15T05:55:37;98158.53;;;4.82;84.60
75513;BME280;64090;49.770;18.760;2024-02-15T05:58:43;98159.45;;;4.88;84.49
75513;BME280;64090;49.770;18.760;2024-02-15T06:01:47;98157.83;;;4.95;84.73
75513;BME280;64090;49.770;18.760;2024-02-15T06:04:51;98162.23;;;5.02;84.58
75513;BME280;64090;49.770;18.760;2024-02-15T06:07:55;98169.20;;;5.08;84.67
75513;BME280;64090;49.770;18.760;2024-02-15T06:11:00;98176.39;;;5.13;84.58
75513;BME280;64090;49.770;18.760;2024-02-15T06:14:04;98179.21;;;5.18;84.51
75513;BME280;64090;49.770;18.760;2024-02-15T06:17:07;98186.30;;;5.24;84.35
75513;BME280;64090;49.770;18.760;2024-02-15T06:20:15;98183.79;;;5.30;84.43
75513;BME280;64090;49.770;18.760;2024-02-15T06:23:21;98185.60;;;5.36;84.46
75513;BME280;64090;49.770;18.760;2024-02-15T06:26:25;98190.74;;;5.40;84.55
75513;BME280;64090;49.770;18.760;2024-02-15T06:29:28;98193.20;;;5.46;84.53
75513;BME280;64090;49.770;18.760;2024-02-15T06:32:49;98195.58;;;5.53;84.43
75513;BME280;64090;49.770;18.760;2024-02-15T06:36:10;98198.64;;;5.61;84.42
75513;BME280;64090;49.770;18.760;2024-02-15T06:39:32;98203.06;;;5.69;84.37
75513;BME280;64090;49.770;18.760;2024-02-15T06:42:45;98202.61;;;5.76;84.18
75513;BME280;64090;49.770;18.760;2024-02-15T06:45:48;98204.96;;;5.85;84.26
75513;BME280;64090;49.770;18.760;2024-02-15T06:48:53;98202.30;;;5.96;84.02
75513;BME280;64090;49.770;18.760;2024-02-15T06:51:57;98202.04;;;6.07;83.93
75513;BME280;64090;49.770;18.760;2024-02-15T06:55:01;98200.52;;;6.16;83.87
75513;BME280;64090;49.770;18.760;2024-02-15T06:58:04;98195.58;;;6.24;83.86
75513;BME280;64090;49.770;18.760;2024-02-15T07:01:08;98196.75;;;6.31;83.77
75513;BME280;64090;49.770;18.760;2024-02-15T07:04:11;98192.16;;;6.38;83.85
75513;BME280;64090;49.770;18.760;2024-02-15T07:07:14;98194.00;;;6.45;83.84
75513;BME280;64090;49.770;18.760;2024-02-15T07:10:18;98198.11;;;6.53;83.58
75513;BME280;64090;49.770;18.760;2024-02-15T07:13:21;98200.17;;;6.60;83.35
75513;BME280;64090;49.770;18.760;2024-02-15T07:16:24;98201.61;;;6.66;82.91
75513;BME280;64090;49.770;18.760;2024-02-15T07:19:28;98201.05;;;6.71;82.82
75513;BME280;64090;49.770;18.760;2024-02-15T07:22:31;98203.32;;;6.74;82.82
75513;BME280;64090;49.770;18.760;2024-02-15T07:25:35;98204.37;;;6.78;82.88
75513;BME280;64090;49.770;18.760;2024-02-15T07:28:39;98204.29;;;6.81;82.81
75513;BME280;64090;49.770;18.760;2024-02-15T07:31:42;98208.42;;;6.89;82.74
75513;BME280;64090;49.770;18.760;2024-02-15T07:34:45;98205.66;;;6.96;82.71
75513;BME280;64090;49.770;18.760;2024-02-15T07:37:53;98207.04;;;7.00;82.50
75513;BME280;64090;49.770;18.760;2024-02-15T07:40:58;98211.30;;;7.06;82.42
75513;BME280;64090;49.770;18.760;2024-02-15T07:44:02;98212.56;;;7.17;82.41
75513;BME280;64090;49.770;18.760;2024-02-15T07:47:05;98212.69;;;7.27;82.27
75513;BME280;64090;49.770;18.760;2024-02-15T07:50:09;98213.30;;;7.40;82.17
75513;BME280;64090;49.770;18.760;2024-02-15T07:53:13;98214.65;;;7.54;81.80
75513;BME280;64090;49.770;18.760;2024-02-15T07:56:17;98216.92;;;7.69;81.49
75513;BME280;64090;49.770;18.760;2024-02-15T07:59:20;98214.77;;;7.84;81.02
75513;BME280;64090;49.770;18.760;2024-02-15T08:02:23;98214.02;;;8.02;80.84
75513;BME280;64090;49.770;18.760;2024-02-15T08:05:27;98213.85;;;8.20;80.75
75513;BME280;64090;49.770;18.760;2024-02-15T08:08:30;98209.76;;;8.34;80.50
75513;BME280;64090;49.770;18.760;2024-02-15T08:11:33;98203.42;;;8.41;80.18
75513;BME280;64090;49.770;18.760;2024-02-15T08:14:37;98197.95;;;8.51;79.43
75513;BME280;64090;49.770;18.760;2024-02-15T08:17:44;98199.72;;;8.62;78.95
75513;BME280;64090;49.770;18.760;2024-02-15T08:20:51;98197.45;;;8.77;79.00
75513;BME280;64090;49.770;18.760;2024-02-15T08:23:54;98199.13;;;8.93;78.55
75513;BME280;64090;49.770;18.760;2024-02-15T08:26:58;98198.56;;;9.05;77.98
75513;BME280;64090;49.770;18.760;2024-02-15T08:30:02;98194.09;;;9.19;77.82
75513;BME280;64090;49.770;18.760;2024-02-15T08:33:07;98189.76;;;9.28;77.15
75513;BME280;64090;49.770;18.760;2024-02-15T08:36:10;98187.23;;;9.35;77.14
75513;BME280;64090;49.770;18.760;2024-02-15T08:39:13;98188.52;;;9.37;76.69
75513;BME280;64090;49.770;18.760;2024-02-15T08:42:19;98185.79;;;9.31;76.11
75513;BME280;64090;49.770;18.760;2024-02-15T08:45:25;98182.39;;;9.26;75.59
75513;BME280;64090;49.770;18.760;2024-02-15T08:48:28;98176.44;;;9.28;75.89
75513;BME280;64090;49.770;18.760;2024-02-15T08:51:31;98177.42;;;9.25;75.70
75513;BME280;64090;49.770;18.760;2024-02-15T08:54:35;98176.66;;;9.30;76.05
75513;BME280;64090;49.770;18.760;2024-02-15T08:57:41;98173.42;;;9.42;75.86
75513;BME280;64090;49.770;18.760;2024-02-15T09:00:46;98175.09;;;9.53;74.96
75513;BME280;64090;49.770;18.760;2024-02-15T09:03:49;98172.36;;;9.65;74.72
75513;BME280;64090;49.770;18.760;2024-02-15T09:06:52;98173.08;;;9.79;74.71
75513;BME280;64090;49.770;18.760;2024-02-15T09:09:55;98172.74;;;9.91;73.71
75513;BME280;64090;49.770;18.760;2024-02-15T09:12:58;98174.60;;;10.01;73.19
75513;BME280;64090;49.770;18.760;2024-02-15T09:16:01;98177.31;;;10.12;72.97
75513;BME280;64090;49.770;18.760;2024-02-15T09:19:05;98175.99;;;10.20;72.54
75513;BME280;64090;49.770;18.760;2024-02-15T09:22:09;98180.05;;;10.29;72.17
75513;BME280;64090;49.770;18.760;2024-02-15T09:25:12;98182.14;;;10.39;72.53
75513;BME280;64090;49.770;18.760;2024-02-15T09:28:15;98178.92;;;10.52;72.44
75513;BME280;64090;49.770;18.760;2024-02-15T09:31:19;98185.27;;;10.62;71.76
75513;BME280;64090;49.770;18.760;2024-02-15T09:34:22;98184.36;;;10.62;70.74
75513;BME280;64090;49.770;18.760;2024-02-15T09:37:25;98184.67;;;10.68;71.35
75513;BME280;64090;49.770;18.760;2024-02-15T09:40:30;98181.94;;;10.75;70.55
75513;BME280;64090;49.770;18.760;2024-02-15T09:43:34;98180.70;;;10.76;70.59
75513;BME280;64090;49.770;18.760;2024-02-15T09:46:42;98183.25;;;10.75;70.39
75513;BME280;64090;49.770;18.760;2024-02-15T09:49:47;98187.55;;;10.76;70.72
75513;BME280;64090;49.770;18.760;2024-02-15T09:52:52;98189.97;;;10.85;70.99
75513;BME280;64090;49.770;18.760;2024-02-15T09:55:59;98193.59;;;10.95;71.06
75513;BME280;64090;49.770;18.760;2024-02-15T09:59:07;98193.84;;;11.02;70.30
75513;BME280;64090;49.770;18.760;2024-02-15T10:02:10;98192.23;;;11.06;70.59
75513;BME280;64090;49.770;18.760;2024-02-15T10:05:14;98189.45;;;11.17;70.95
75513;BME280;64090;49.770;18.760;2024-02-15T10:08:17;98193.04;;;11.32;70.21
75513;BME280;64090;49.770;18.760;2024-02-15T10:11:20;98191.19;;;11.50;69.65
75513;BME280;64090;49.770;18.760;2024-02-15T10:14:28;98189.69;;;11.70;69.60
75513;BME280;64090;49.770;18.760;2024-02-15T10:17:31;98184.73;;;11.92;69.25
75513;BME280;64090;49.770;18.760;2024-02-15T10:20:38;98178.75;;;12.05;68.79
75513;BME280;64090;49.770;18.760;2024-02-15T10:23:42;98180.31;;;12.24;69.11
75513;BME280;64090;49.770;18.760;2024-02-15T10:26:48;98175.89;;;12.34;67.90
75513;BME280;64090;49.770;18.760;2024-02-15T10:29:51;98176.84;;;12.40;67.95
75513;BME280;64090;49.770;18.760;2024-02-15T10:32:55;98177.25;;;12.40;67.81
75513;BME280;64090;49.770;18.760;2024-02-15T10:36:10;98176.34;;;12.42;67.36
75513;BME280;64090;49.770;18.760;2024-02-15T10:39:17;98175.53;;;12.41;66.61
75513;BME280;64090;49.770;18.760;2024-02-15T10:42:25;98175.44;;;12.36;66.50
75513;BME280;64090;49.770;18.760;2024-02-15T10:45:30;98176.30;;;12.38;67.53
75513;BME280;64090;49.770;18.760;2024-02-15T10:48:33;98179.62;;;12.35;66.65
75513;BME280;64090;49.770;18.760;2024-02-15T10:51:39;98179.26;;;12.26;66.65
75513;BME280;64090;49.770;18.760;2024-02-15T10:55:04;98177.45;;;12.28;66.93
75513;BME280;64090;49.770;18.760;2024-02-15T10:58:07;98174.63;;;12.40;66.68
75513;BME280;64090;49.770;18.760;2024-02-15T11:01:12;98167.47;;;12.56;66.26
75513;BME280;64090;49.770;18.760;2024-02-15T11:04:20;98165.81;;;12.86;66.29
75513;BME280;64090;49.770;18.760;2024-02-15T11:07:25;98159.96;;;13.19;65.89
75513;BME280;64090;49.770;18.760;2024-02-15T11:10:35;98158.36;;;13.37;64.78
75513;BME280;64090;49.770;18.760;2024-02-15T11:13:38;98154.08;;;13.41;64.66
75513;BME280;64090;49.770;18.760;2024-02-15T11:16:42;98149.02;;;13.37;63.94
75513;BME280;64090;49.770;18.760;2024-02-15T11:19:51;98148.67;;;13.35;64.62
75513;BME280;64090;49.770;18.760;2024-02-15T11:22:57;98143.66;;;13.35;64.86
75513;BME280;64090;49.770;18.760;2024-02-15T11:26:00;98140.08;;;13.35;64.63
75513;BME280;64090;49.770;18.760;2024-02-15T11:29:03;98137.27;;;13.24;63.86
75513;BME280;64090;49.770;18.760;2024-02-15T11:32:06;98132.25;;;13.16;64.18
75513;BME280;64090;49.770;18.760;2024-02-15T11:35:13;98131.52;;;13.25;64.43
75513;BME280;64090;49.770;18.760;2024-02-15T11:38:28;98127.26;;;13.24;63.77
75513;BME280;64090;49.770;18.760;2024-02-15T11:41:31;98125.08;;;13.21;64.34
75513;BME280;64090;49.770;18.760;2024-02-15T11:44:34;98118.81;;;13.25;64.49
75513;BME280;64090;49.770;18.760;2024-02-15T11:47:39;98115.80;;;13.27;63.28
75513;BME280;64090;49.770;18.760;2024-02-15T11:50:46;98114.26;;;13.17;63.31
75513;BME280;64090;49.770;18.760;2024-02-15T11:53:59;98111.83;;;13.09;63.67
75513;BME280;64090;49.770;18.760;2024-02-15T11:57:02;98109.36;;;13.19;63.75
75513;BME280;64090;49.770;18.760;2024-02-15T12:00:26;98102.35;;;13.24;62.58
75513;BME280;64090;49.770;18.760;2024-02-15T12:03:54;98099.10;;;13.39;62.99
75513;BME280;64090;49.770;18.760;2024-02-15T12:07:16;98098.20;;;13.55;63.44
75513;BME280;64090;49.770;18.760;2024-02-15T12:10:37;98090.75;;;13.72;63.41
75513;BME280;64090;49.770;18.760;2024-02-15T12:13:59;98094.73;;;13.89;62.68
75513;BME280;64090;49.770;18.760;2024-02-15T12:17:23;98098.67;;;14.12;62.94
75513;BME280;64090;49.770;18.760;2024-02-15T12:20:44;98096.32;;;14.31;61.71
75513;BME280;64090;49.770;18.760;2024-02-15T12:23:48;98092.55;;;14.34;59.98
75513;BME280;64090;49.770;18.760;2024-02-15T12:27:00;98095.60;;;14.25;59.90
75513;BME280;64090;49.770;18.760;2024-02-15T12:30:04;98093.48;;;14.31;60.62
75513;BME280;64090;49.770;18.760;2024-02-15T12:33:11;98091.61;;;14.41;61.19
75513;BME280;64090;49.770;18.760;2024-02-15T12:36:19;98091.30;;;14.53;60.84
75513;BME280;64090;49.770;18.760;2024-02-15T12:39:25;98090.77;;;14.59;60.14
75513;BME280;64090;49.770;18.760;2024-02-15T12:42:28;98092.27;;;14.57;61.02
75513;BME280;64090;49.770;18.760;2024-02-15T12:45:32;98095.14;;;14.62;61.28
75513;BME280;64090;49.770;18.760;2024-02-15T12:48:39;98093.73;;;14.59;61.06
75513;BME280;64090;49.770;18.760;2024-02-15T12:51:51;98089.67;;;14.61;61.01
75513;BME280;64090;49.770;18.760;2024-02-15T12:55:19;98087.14;;;14.68;61.18
75513;BME280;64090;49.770;18.760;2024-02-15T12:58:22;98083.80;;;14.74;61.42
75513;BME280;64090;49.770;18.760;2024-02-15T13:01:27;98082.69;;;14.70;60.99
75513;BME280;64090;49.770;18.760;2024-02-15T13:04:31;98082.73;;;14.55;60.70
75513;BME280;64090;49.770;18.760;2024-02-15T13:07:36;98084.44;;;14.50;61.63
75513;BME280;64090;49.770;18.760;2024-02-15T13:10:40;98087.36;;;14.46;61.47
75513;BME280;64090;49.770;18.760;2024-02-15T13:13:43;98088.11;;;14.37;61.79
75513;BME280;64090;49.770;18.760;2024-02-15T13:16:46;98085.05;;;14.26;61.38
75513;BME280;64090;49.770;18.760;2024-02-15T13:19:51;98087.48;;;14.12;62.01
75513;BME280;64090;49.770;18.760;2024-02-15T13:22:54;98088.31;;;14.01;62.39
75513;BME280;64090;49.770;18.760;2024-02-15T13:26:00;98092.44;;;13.89;62.11
75513;BME280;64090;49.770;18.760;2024-02-15T13:29:06;98091.98;;;13.72;62.43
75513;BME280;64090;49.770;18.760;2024-02-15T13:32:09;98092.55;;;13.54;62.97
75513;BME280;64090;49.770;18.760;2024-02-15T13:35:15;98088.30;;;13.45;63.24
75513;BME280;64090;49.770;18.760;2024-02-15T13:38:21;98090.27;;;13.31;63.54
75513;BME280;64090;49.770;18.760;2024-02-15T13:41:27;98085.63;;;13.17;63.80
75513;BME280;64090;49.770;18.760;2024-02-15T13:44:30;98089.39;;;13.04;64.07
75513;BME280;64090;49.770;18.760;2024-02-15T13:47:33;98087.19;;;12.90;64.23
75513;BME280;64090;49.770;18.760;2024-02-15T13:50:36;98084.23;;;12.81;64.59
75513;BME280;64090;49.770;18.760;2024-02-15T13:53:40;98080.14;;;12.74;64.84
75513;BME280;64090;49.770;18.760;2024-02-15T13:56:44;98083.20;;;12.69;65.03
75513;BME280;64090;49.770;18.760;2024-02-15T13:59:47;98085.19;;;12.64;65.20
75513;BME280;64090;49.770;18.760;2024-02-15T14:02:51;98085.36;;;12.57;65.41
75513;BME280;64090;49.770;18.760;2024-02-15T14:05:55;98083.19;;;12.44;65.80
75513;BME280;64090;49.770;18.760;2024-02-15T14:08:58;98082.16;;;12.34;65.92
75513;BME280;64090;49.770;18.760;2024-02-15T14:12:02;98082.02;;;12.23;66.12
75513;BME280;64090;49.770;18.760;2024-02-15T14:15:08;98078.96;;;12.12;66.52
75513;BME280;64090;49.770;18.760;2024-02-15T14:18:13;98079.96;;;12.06;67.03
75513;BME280;64090;49.770;18.760;2024-02-15T14:21:18;98089.21;;;12.01;67.33
75513;BME280;64090;49.770;18.760;2024-02-15T14:24:21;98093.45;;;11.93;67.35
75513;BME280;64090;49.770;18.760;2024-02-15T14:27:25;98092.16;;;11.86;67.69
75513;BME280;64090;49.770;18.760;2024-02-15T14:30:28;98090.16;;;11.80;67.79
75513;BME280;64090;49.770;18.760;2024-02-15T14:33:50;98086.92;;;11.71;68.24
75513;BME280;64090;49.770;18.760;2024-02-15T14:36:53;98086.18;;;11.62;68.49
75513;BME280;64090;49.770;18.760;2024-02-15T14:39:57;98089.66;;;11.57;68.62
75513;BME280;64090;49.770;18.760;2024-02-15T14:43:07;98083.55;;;11.56;68.65
75513;BME280;64090;49.770;18.760;2024-02-15T14:46:10;98086.24;;;11.58;68.82
75513;BME280;64090;49.770;18.760;2024-02-15T14:49:13;98082.29;;;11.67;69.12
75513;BME280;64090;49.770;18.760;2024-02-15T14:52:16;98080.90;;;11.75;68.89
75513;BME280;64090;49.770;18.760;2024-02-15T14:55:19;98081.80;;;11.80;68.90
75513;BME280;64090;49.770;18.760;2024-02-15T14:58:23;98085.70;;;11.82;68.95
75513;BME280;64090;49.770;18.760;2024-02-15T15:01:26;98079.50;;;11.74;68.82
75513;BME280;64090;49.770;18.760;2024-02-15T15:04:30;98079.00;;;11.57;69.00
75513;BME280;64090;49.770;18.760;2024-02-15T15:07:49;98084.41;;;11.33;69.24
75513;BME280;64090;49.770;18.760;2024-02-15T15:11:11;98087.36;;;11.09;69.79
75513;BME280;64090;49.770;18.760;2024-02-15T15:14:32;98087.20;;;10.89;70.03
75513;BME280;64090;49.770;18.760;2024-02-15T15:17:35;98083.98;;;10.67;70.45
75513;BME280;64090;49.770;18.760;2024-02-15T15:20:39;98086.35;;;10.47;70.83
75513;BME280;64090;49.770;18.760;2024-02-15T15:23:43;98084.91;;;10.29;71.13
75513;BME280;64090;49.770;18.760;2024-02-15T15:26:46;98087.14;;;10.11;71.75
75513;BME280;64090;49.770;18.760;2024-02-15T15:29:49;98087.88;;;9.94;72.19
75513;BME280;64090;49.770;18.760;2024-02-15T15:32:52;98087.18;;;9.78;72.84
75513;BME280;64090;49.770;18.760;2024-02-15T15:35:55;98090.41;;;9.65;72.87
75513;BME280;64090;49.770;18.760;2024-02-15T15:38:58;98093.20;;;9.53;73.31
75513;BME280;64090;49.770;18.760;2024-02-15T15:42:02;98090.55;;;9.42;73.35
75513;BME280;64090;49.770;18.760;2024-02-15T15:45:06;98099.65;;;9.33;73.77
75513;BME280;64090;49.770;18.760;2024-02-15T15:48:11;98105.85;;;9.24;74.24
75513;BME280;64090;49.770;18.760;2024-02-15T15:51:14;98113.78;;;9.19;74.39
75513;BME280;64090;49.770;18.760;2024-02-15T15:54:18;98116.25;;;9.13;74.75
75513;BME280;64090;49.770;18.760;2024-02-15T15:57:22;98114.97;;;9.09;75.12
75513;BME280;64090;49.770;18.760;2024-02-15T16:00:27;98120.41;;;9.06;75.37
75513;BME280;64090;49.770;18.760;2024-02-15T16:03:31;98120.63;;;9.05;75.63
75513;BME280;64090;49.770;18.760;2024-02-15T16:06:34;98120.44;;;9.03;75.66
75513;BME280;64090;49.770;18.760;2024-02-15T16:09:38;98118.64;;;9.02;75.77
75513;BME280;64090;49.770;18.760;2024-02-15T16:12:47;98122.14;;;9.01;75.78
75513;BME280;64090;49.770;18.760;2024-02-15T16:15:51;98126.61;;;9.01;76.18